Time;durP1;ratioP1;P1;durP2;ratioP2;P2;SDS_P1;SDS_P2;PMS_P1;PMS_P2;Temp;Humidity;BMP_temperature;BMP_pressure;BME280_temperature;BME280_humidity;BME280_pressure;Samples;Min_cycle;Max_cycle;Signal;HPM_P1;HPM_P2
2022/05/18 00:02:48;;;;;;;;;;;19.90;99.90;;;;;;8393253;28;19936;-69
2022/05/18 00:06:50;;;;;;;;;;;19.80;99.90;;;;;;8395858;28;19920;-70
2022/05/18 00:10:51;;;;;;;;;;;19.70;99.90;;;;;;8370642;28;19924;-70
2022/05/18 00:14:53;;;;;;;;;;;19.60;99.90;;;;;;8389534;28;19932;-70
2022/05/18 00:18:55;;;;;;;;;;;19.50;99.90;;;;;;8383503;28;19928;-70
2022/05/18 00:22:58;;;;;;;;;;;19.50;99.90;;;;;;8383230;28;19924;-70
2022/05/18 00:27:03;;;;;;;;;;;19.40;99.90;;;;;;8384858;28;19931;-70
2022/05/18 00:31:23;;;;;;;;;;;19.40;99.90;;;;;;8378251;28;19939;-70
2022/05/18 00:35:25;;;;;;;;;;;19.30;99.90;;;;;;8380572;28;19931;-70
2022/05/18 00:39:27;;;;;;;;;;;19.20;99.90;;;;;;8398723;28;19927;-70
2022/05/18 00:43:28;;;;;;;;;;;19.20;99.90;;;;;;8405946;28;19920;-69
2022/05/18 00:47:30;;;;;;;;;;;19.20;99.90;;;;;;8382394;28;19993;-69
2022/05/18 00:51:35;;;;;;;;;;;19.10;99.90;;;;;;8395935;28;20264;-70
2022/05/18 00:55:40;;;;;;;;;;;19.00;99.90;;;;;;8400480;28;19920;-69
2022/05/18 00:59:43;;;;;;;;;;;19.00;99.90;;;;;;8379516;28;19928;-69
2022/05/18 01:03:47;;;;;;;;;;;18.90;99.90;;;;;;8388502;28;19920;-69
2022/05/18 01:07:50;;;;;;;;;;;18.80;99.90;;;;;;8393823;28;19936;-69
2022/05/18 01:11:52;;;;;;;;;;;18.70;99.90;;;;;;8379485;28;19921;-69
2022/05/18 01:15:55;;;;;;;;;;;18.70;99.90;;;;;;8386307;28;19931;-70
2022/05/18 01:19:58;;;;;;;;;;;18.60;99.90;;;;;;8381282;28;20298;-70
2022/05/18 01:24:05;;;;;;;;;;;18.60;99.90;;;;;;8397150;28;19924;-69
2022/05/18 01:28:07;;;;;;;;;;;18.60;99.90;;;;;;8397553;28;19924;-70
2022/05/18 01:32:12;;;;;;;;;;;18.50;99.90;;;;;;8383790;28;19921;-70
2022/05/18 01:36:14;;;;;;;;;;;18.50;99.90;;;;;;8393555;28;20395;-69
2022/05/18 01:40:34;;;;;;;;;;;18.50;99.90;;;;;;8401236;28;19920;-69
2022/05/18 01:44:37;;;;;;;;;;;18.50;99.90;;;;;;8386732;28;19927;-69
2022/05/18 01:48:41;;;;;;;;;;;18.50;99.90;;;;;;8398337;28;19920;-69
2022/05/18 01:52:43;;;;;;;;;;;18.50;99.90;;;;;;8388526;28;20379;-69
2022/05/18 01:56:45;;;;;;;;;;;18.50;99.90;;;;;;8387322;28;20447;-70
2022/05/18 02:00:46;;;;;;;;;;;18.50;99.90;;;;;;8387007;28;20293;-70
2022/05/18 02:04:48;;;;;;;;;;;18.40;99.90;;;;;;8392113;28;20379;-70
2022/05/18 02:08:50;;;;;;;;;;;18.40;99.90;;;;;;8380974;28;19920;-70
2022/05/18 02:12:52;;;;;;;;;;;18.40;99.90;;;;;;8385719;28;19921;-70
2022/05/18 02:16:54;;;;;;;;;;;18.30;99.90;;;;;;8386112;28;19928;-70
2022/05/18 02:20:55;;;;;;;;;;;18.30;99.90;;;;;;8391550;28;19928;-70
2022/05/18 02:24:57;;;;;;;;;;;18.30;99.90;;;;;;8385370;28;19931;-70
2022/05/18 02:28:58;;;;;;;;;;;18.20;99.90;;;;;;8403221;28;19943;-70
2022/05/18 02:33:00;;;;;;;;;;;18.20;99.90;;;;;;8404561;28;19920;-70
2022/05/18 02:37:02;;;;;;;;;;;18.10;99.90;;;;;;8377844;28;19921;-70
2022/05/18 02:41:04;;;;;;;;;;;18.10;99.90;;;;;;8396774;28;19931;-70
2022/05/18 02:45:06;;;;;;;;;;;18.10;99.90;;;;;;8386879;28;19946;-70
2022/05/18 02:49:08;;;;;;;;;;;18.00;99.90;;;;;;8385425;28;19927;-70
2022/05/18 02:53:09;;;;;;;;;;;18.00;99.90;;;;;;8389638;28;19931;-70
2022/05/18 02:57:11;;;;;;;;;;;18.00;99.90;;;;;;8386786;28;19920;-70
2022/05/18 03:01:16;;;;;;;;;;;17.90;99.90;;;;;;8392959;28;19928;-70
2022/05/18 03:05:18;;;;;;;;;;;17.90;99.90;;;;;;8385168;28;19974;-70
2022/05/18 03:09:20;;;;;;;;;;;17.90;99.90;;;;;;8391703;28;19976;-70
2022/05/18 03:13:21;;;;;;;;;;;17.90;99.90;;;;;;8388959;28;19920;-70
2022/05/18 03:17:23;;;;;;;;;;;17.90;99.90;;;;;;8386590;28;19920;-70
2022/05/18 03:25:45;;;;;;;;;;;17.80;99.90;;;;;;8389270;28;19924;-70
2022/05/18 03:29:46;;;;;;;;;;;17.80;99.90;;;;;;8392713;28;19931;-70
2022/05/18 03:33:48;;;;;;;;;;;17.80;99.90;;;;;;8410340;28;19920;-70
2022/05/18 03:37:50;;;;;;;;;;;17.80;99.90;;;;;;8384655;28;20367;-70
2022/05/18 03:41:52;;;;;;;;;;;17.80;99.90;;;;;;8382115;28;20019;-70
2022/05/18 03:45:54;;;;;;;;;;;17.80;99.90;;;;;;8401213;28;19931;-70
2022/05/18 03:49:56;;;;;;;;;;;17.80;99.90;;;;;;8381996;28;19928;-70
2022/05/18 03:53:57;;;;;;;;;;;17.80;99.90;;;;;;8382767;28;20372;-70
2022/05/18 03:57:59;;;;;;;;;;;17.70;99.90;;;;;;8376455;28;19968;-70
2022/05/18 04:02:00;;;;;;;;;;;17.70;99.90;;;;;;8398403;28;20267;-70
2022/05/18 04:06:02;;;;;;;;;;;17.70;99.90;;;;;;8378974;28;19927;-70
2022/05/18 04:10:04;;;;;;;;;;;17.70;99.90;;;;;;8370760;28;20292;-70
2022/05/18 04:14:06;;;;;;;;;;;17.70;99.90;;;;;;8383812;28;20022;-70
2022/05/18 04:18:08;;;;;;;;;;;17.70;99.90;;;;;;8382013;28;20391;-70
2022/05/18 04:22:09;;;;;;;;;;;17.70;99.90;;;;;;8389485;28;19920;-70
2022/05/18 04:26:11;;;;;;;;;;;17.60;99.90;;;;;;8376735;28;19975;-68
2022/05/18 04:30:24;;;;;;;;;;;17.60;99.90;;;;;;8398890;28;20327;-68
2022/05/18 04:34:26;;;;;;;;;;;17.60;99.90;;;;;;8390758;28;19921;-68
2022/05/18 04:38:28;;;;;;;;;;;17.60;99.90;;;;;;8387590;28;19921;-68
2022/05/18 04:42:30;;;;;;;;;;;17.70;99.90;;;;;;8389143;28;19949;-68
2022/05/18 04:46:32;;;;;;;;;;;17.70;99.90;;;;;;8387710;28;19939;-68
2022/05/18 04:50:33;;;;;;;;;;;17.70;99.90;;;;;;8392200;28;19935;-68
2022/05/18 04:54:35;;;;;;;;;;;17.80;99.90;;;;;;8391787;28;19934;-68
2022/05/18 04:58:36;;;;;;;;;;;17.90;99.90;;;;;;8387433;28;20337;-68
2022/05/18 05:02:39;;;;;;;;;;;17.90;99.90;;;;;;8393061;28;19921;-68
2022/05/18 05:06:43;;;;;;;;;;;18.00;99.90;;;;;;8396642;28;19966;-68
2022/05/18 05:10:45;;;;;;;;;;;18.10;99.90;;;;;;8372865;28;19936;-68
2022/05/18 05:14:46;;;;;;;;;;;18.20;99.90;;;;;;8389239;28;19932;-68
2022/05/18 05:18:48;;;;;;;;;;;18.30;99.90;;;;;;8377698;28;19928;-68
2022/05/18 05:22:50;;;;;;;;;;;18.40;99.90;;;;;;8388022;28;19921;-68
2022/05/18 05:26:51;;;;;;;;;;;18.50;99.90;;;;;;8392691;28;19943;-68
2022/05/18 05:30:54;;;;;;;;;;;18.60;99.90;;;;;;8383991;28;19921;-68
2022/05/18 05:34:55;;;;;;;;;;;18.70;99.90;;;;;;8377662;28;20402;-68
2022/05/18 05:38:57;;;;;;;;;;;18.70;99.90;;;;;;8392455;28;20697;-68
2022/05/18 05:42:58;;;;;;;;;;;18.70;99.90;;;;;;8391206;28;19924;-68
2022/05/18 05:47:03;;;;;;;;;;;18.70;99.90;;;;;;8408543;28;20320;-68
2022/05/18 05:51:06;;;;;;;;;;;18.70;99.90;;;;;;8381827;28;19960;-68
2022/05/18 05:55:08;;;;;;;;;;;18.70;99.90;;;;;;8397576;28;19928;-68
2022/05/18 05:59:09;;;;;;;;;;;18.70;99.90;;;;;;8377612;28;19940;-68
2022/05/18 06:03:12;;;;;;;;;;;18.70;99.90;;;;;;8375818;28;20387;-68
2022/05/18 06:07:13;;;;;;;;;;;18.70;99.90;;;;;;8366587;28;19987;-68
2022/05/18 06:11:15;;;;;;;;;;;18.80;99.90;;;;;;8352238;28;19924;-67
2022/05/18 06:15:17;;;;;;;;;;;18.80;99.90;;;;;;8357426;28;19979;-68
2022/05/18 06:19:19;;;;;;;;;;;18.90;99.90;;;;;;8357508;28;20011;-68
2022/05/18 06:23:20;;;;;;;;;;;18.90;99.90;;;;;;8355854;28;20039;-68
2022/05/18 06:27:23;;;;;;;;;;;18.90;99.90;;;;;;8354501;28;19961;-68
2022/05/18 06:31:25;;;;;;;;;;;18.90;99.90;;;;;;8353513;28;19924;-68
2022/05/18 06:35:26;;;;;;;;;;;19.00;99.90;;;;;;8355260;28;19959;-68
2022/05/18 06:39:28;;;;;;;;;;;19.00;99.90;;;;;;8351476;28;19931;-68
2022/05/18 06:43:55;;;;;;;;;;;19.10;99.90;;;;;;8355236;28;19925;-68
2022/05/18 06:47:57;;;;;;;;;;;19.20;99.90;;;;;;8371595;28;19956;-68
2022/05/18 06:51:59;;;;;;;;;;;19.20;99.90;;;;;;8371160;28;19964;-68
2022/05/18 06:56:00;;;;;;;;;;;19.30;99.90;;;;;;8387182;27;19921;-68
2022/05/18 07:00:05;;;;;;;;;;;19.30;99.90;;;;;;8370552;28;19972;-68
2022/05/18 07:04:09;;;;;;;;;;;19.30;99.90;;;;;;8342893;28;19924;-68
2022/05/18 07:08:11;;;;;;;;;;;19.40;99.90;;;;;;8345538;28;19925;-67
2022/05/18 07:12:13;;;;;;;;;;;19.50;99.90;;;;;;8353014;28;19928;-67
2022/05/18 07:16:15;;;;;;;;;;;19.60;99.90;;;;;;8351175;28;19924;-68
2022/05/18 07:20:17;;;;;;;;;;;19.80;99.90;;;;;;8354333;28;19925;-70
2022/05/18 07:24:19;;;;;;;;;;;20.00;99.90;;;;;;8357518;28;19925;-67
2022/05/18 07:28:21;;;;;;;;;;;20.20;99.90;;;;;;8375045;28;19925;-67
2022/05/18 07:32:23;;;;;;;;;;;20.30;99.90;;;;;;8353747;28;19972;-67
2022/05/18 07:36:25;;;;;;;;;;;20.50;99.90;;;;;;8355085;28;20300;-67
2022/05/18 07:40:26;;;;;;;;;;;20.60;99.90;;;;;;8351751;28;19920;-67
2022/05/18 07:44:28;;;;;;;;;;;20.80;99.90;;;;;;8358173;28;19933;-67
2022/05/18 07:48:30;;;;;;;;;;;20.90;99.90;;;;;;8355570;28;19920;-67
2022/05/18 07:52:31;;;;;;;;;;;21.00;99.90;;;;;;8367796;28;19924;-67
2022/05/18 07:56:34;;;;;;;;;;;21.10;99.90;;;;;;8355906;28;19927;-67
2022/05/18 08:00:36;;;;;;;;;;;21.30;99.90;;;;;;8355156;28;20013;-67
2022/05/18 08:04:38;;;;;;;;;;;21.40;99.90;;;;;;8369552;28;20258;-66
2022/05/18 08:08:40;;;;;;;;;;;21.50;99.90;;;;;;8351114;28;19925;-67
2022/05/18 08:17:02;;;;;;;;;;;21.70;99.90;;;;;;8352735;28;19948;-67
2022/05/18 08:21:04;;;;;;;;;;;21.80;99.90;;;;;;8384981;28;19936;-67
2022/05/18 08:25:05;;;;;;;;;;;21.80;99.90;;;;;;8350659;28;20340;-67
2022/05/18 08:29:08;;;;;;;;;;;21.90;99.90;;;;;;8351604;28;19928;-67
2022/05/18 08:33:10;;;;;;;;;;;21.90;99.90;;;;;;8358011;28;19932;-67
2022/05/18 08:37:11;;;;;;;;;;;21.90;99.90;;;;;;8353481;28;20015;-67
2022/05/18 08:41:13;;;;;;;;;;;22.00;99.90;;;;;;8373345;28;19956;-67
2022/05/18 08:45:14;;;;;;;;;;;22.10;99.90;;;;;;8356921;28;20252;-67
2022/05/18 08:49:20;;;;;;;;;;;22.20;99.90;;;;;;8360277;28;19924;-67
2022/05/18 08:53:40;;;;;;;;;;;22.30;99.90;;;;;;8358110;28;19920;-67
2022/05/18 08:57:43;;;;;;;;;;;22.50;99.90;;;;;;8357931;28;19944;-67
2022/05/18 09:01:46;;;;;;;;;;;22.50;99.90;;;;;;8356583;28;20552;-67
2022/05/18 09:05:54;;;;;;;;;;;22.60;99.90;;;;;;8356455;28;19932;-67
2022/05/18 09:10:16;;;;;;;;;;;22.70;99.90;;;;;;8359332;28;22287;-67
2022/05/18 09:14:20;;;;;;;;;;;22.70;99.90;;;;;;8355150;28;19925;-67
2022/05/18 09:18:34;;;;;;;;;;;22.70;99.90;;;;;;8356199;28;19939;-67
2022/05/18 09:22:42;;;;;;;;;;;22.70;99.90;;;;;;8360479;28;19935;-67
2022/05/18 09:26:50;;;;;;;;;;;22.70;99.90;;;;;;8356581;28;20364;-67
2022/05/18 09:30:51;;;;;;;;;;;22.70;99.90;;;;;;8388443;27;19931;-67
2022/05/18 09:35:05;;;;;;;;;;;22.80;99.90;;;;;;8358174;28;19962;-67
2022/05/18 09:39:10;;;;;;;;;;;22.80;99.90;;;;;;8356161;28;19924;-67
2022/05/18 09:43:37;;;;;;;;;;;22.80;99.90;;;;;;8354019;28;20240;-67
2022/05/18 09:47:41;;;;;;;;;;;22.80;99.90;;;;;;8355106;28;19956;-67
2022/05/18 09:51:44;;;;;;;;;;;22.90;99.90;;;;;;8353531;28;24100;-67
2022/05/18 09:55:47;;;;;;;;;;;22.90;99.90;;;;;;8367194;28;20569;-67
2022/05/18 09:59:52;;;;;;;;;;;23.00;99.90;;;;;;8358361;28;20310;-67
2022/05/18 10:08:30;;;;;;;9.63;6.55;;;23.10;99.90;;;;;;8359918;28;20045;-67
2022/05/18 10:12:48;;;;;;;9.68;6.47;;;23.20;99.90;;;;;;8371178;28;20041;-67
2022/05/18 10:17:07;;;;;;;7.40;5.13;;;23.30;99.90;;;;;;8369661;28;20063;-67
2022/05/18 10:21:09;;;;;;;;;;;23.30;99.90;;;;;;8371545;28;20146;-67
2022/05/18 10:25:32;;;;;;;;;;;23.40;99.90;;;;;;8355363;28;19986;-67
2022/05/18 10:29:34;;;;;;;;;;;23.40;99.90;;;;;;8369737;28;19971;-67
2022/05/18 10:33:37;;;;;;;;;;;23.30;99.90;;;;;;8352959;28;20372;-67
2022/05/18 10:37:38;;;;;;;;;;;23.30;99.90;;;;;;8354434;28;19924;-67
2022/05/18 10:41:41;;;;;;;;;;;23.30;99.90;;;;;;8353544;28;25137;-68
2022/05/18 10:45:52;;;;;;;;;;;23.40;99.90;;;;;;8353518;28;19929;-67
2022/05/18 10:50:26;;;;;;;;;;;23.40;99.90;;;;;;8353966;28;19927;-67
2022/05/18 10:54:28;;;;;;;;;;;23.40;99.90;;;;;;8343242;28;19929;-67
2022/05/18 10:58:33;;;;;;;;;;;23.50;99.90;;;;;;8355745;28;20403;-67
2022/05/18 11:02:55;;;;;;;;;;;23.70;99.90;;;;;;8353701;28;19940;-67
2022/05/18 11:06:57;;;;;;;;;;;23.80;99.90;;;;;;8352043;28;20343;-67
2022/05/18 11:10:58;;;;;;;;;;;24.00;99.90;;;;;;8352914;28;19924;-67
2022/05/18 11:15:00;;;;;;;;;;;24.00;99.90;;;;;;8351825;28;20295;-67
2022/05/18 11:19:07;;;;;;;;;;;24.10;99.90;;;;;;8354229;28;19925;-67
2022/05/18 11:23:08;;;;;;;;;;;24.20;99.90;;;;;;8354689;28;19924;-68
2022/05/18 11:27:33;;;;;;;;;;;24.20;99.90;;;;;;8385672;28;20387;-67
2022/05/18 11:31:42;;;;;;;;;;;24.30;99.90;;;;;;8346172;28;19971;-67
2022/05/18 11:36:07;;;;;;;;;;;24.50;99.90;;;;;;8384723;27;19928;-68
2022/05/18 11:40:21;;;;;;;;;;;24.70;99.90;;;;;;8347875;28;19925;-68
2022/05/18 11:44:41;;;;;;;;;;;24.80;99.90;;;;;;8352759;28;19921;-67
2022/05/18 11:48:45;;;;;;;;;;;24.80;99.90;;;;;;8353585;28;19928;-68
2022/05/18 11:52:53;;;;;;;;;;;24.90;99.90;;;;;;8354542;28;20660;-68
2022/05/18 11:57:11;;;;;;;;;;;24.90;99.90;;;;;;8367869;28;19921;-68
2022/05/18 12:01:35;;;;;;;;;;;24.90;99.90;;;;;;8356363;28;19921;-68
2022/05/18 12:05:43;;;;;;;;;;;24.80;99.90;;;;;;8351313;28;19931;-67
2022/05/18 12:10:02;;;;;;;;;;;25.00;99.90;;;;;;8351908;28;20204;-67
2022/05/18 12:14:08;;;;;;;;;;;24.90;99.90;;;;;;8350028;28;20459;-68
2022/05/18 12:18:16;;;;;;;;;;;24.80;99.90;;;;;;8355026;28;19932;-68
2022/05/18 12:22:21;;;;;;;;;;;24.80;99.90;;;;;;8353930;28;19947;-67
2022/05/18 12:26:23;;;;;;;;;;;24.80;99.90;;;;;;8351009;28;19930;-68
2022/05/18 12:30:26;;;;;;;;;;;24.80;99.90;;;;;;8352290;28;19928;-67
2022/05/18 12:34:34;;;;;;;;;;;24.90;99.90;;;;;;8352235;28;19932;-67
2022/05/18 12:38:39;;;;;;;;;;;24.90;99.90;;;;;;8352983;28;19920;-67
2022/05/18 12:42:51;;;;;;;;;;;24.90;99.90;;;;;;8351464;28;19927;-68
2022/05/18 12:46:54;;;;;;;;;;;24.80;99.90;;;;;;8352831;28;19979;-68
2022/05/18 12:51:02;;;;;;;;;;;24.80;99.90;;;;;;8351840;28;20351;-67
2022/05/18 12:55:16;;;;;;;;;;;24.90;99.90;;;;;;8351227;28;19925;-70
2022/05/18 12:59:22;;;;;;;;;;;24.90;99.90;;;;;;8352136;28;19947;-70
2022/05/18 13:03:26;;;;;;;;;;;25.00;99.90;;;;;;8349641;28;19996;-70
2022/05/18 13:07:28;;;;;;;;;;;25.10;99.90;;;;;;8349792;28;20043;-70
2022/05/18 13:11:45;;;;;;;;;;;25.20;99.90;;;;;;8350385;28;19925;-70
2022/05/18 13:16:09;;;;;;;;;;;25.20;99.90;;;;;;8353778;28;19964;-70
2022/05/18 13:20:25;;;;;;;;;;;25.30;99.90;;;;;;8357741;28;20360;-70
2022/05/18 13:24:34;;;;;;;;;;;25.30;99.90;;;;;;8356816;28;19982;-70
2022/05/18 13:28:36;;;;;;;;;;;25.30;99.90;;;;;;8358071;28;20336;-69
2022/05/18 13:32:38;;;;;;;;;;;25.50;99.90;;;;;;8356201;28;20296;-70
2022/05/18 13:36:46;;;;;;;;;;;25.60;99.90;;;;;;8358291;28;19927;-70
2022/05/18 13:40:57;;;;;;;;;;;25.60;99.90;;;;;;8355847;28;19928;-70
2022/05/18 13:45:12;;;;;;;;;;;25.50;99.90;;;;;;8349709;28;20403;-70
2022/05/18 13:49:16;;;;;;;;;;;25.50;99.90;;;;;;8360101;28;19928;-70
2022/05/18 13:53:20;;;;;;;;;;;25.60;99.90;;;;;;8387825;27;19928;-70
2022/05/18 13:57:22;;;;;;;;;;;25.80;99.90;;;;;;8357139;28;19920;-70
2022/05/18 14:01:30;;;;;;;;;;;26.00;99.90;;;;;;8354360;28;19931;-70
2022/05/18 14:05:35;;;;;;;;;;;26.10;99.90;;;;;;8355640;28;20029;-70
2022/05/18 14:09:40;;;;;;;;;;;26.10;99.90;;;;;;8373263;28;20272;-70
2022/05/18 14:13:48;;;;;;;;;;;26.20;99.90;;;;;;8355626;28;19973;-69
2022/05/18 14:17:54;;;;;;;;;;;26.30;99.90;;;;;;8375972;28;19928;-70
2022/05/18 14:21:57;;;;;;;;;;;26.30;99.90;;;;;;8358514;28;19942;-70
2022/05/18 14:26:02;;;;;;;;;;;26.30;99.90;;;;;;8363737;28;19925;-70
2022/05/18 14:30:06;;;;;;;;;;;26.40;99.90;;;;;;8358183;28;20353;-69
2022/05/18 14:34:16;;;;;;;;;;;26.60;99.90;;;;;;8358342;28;19924;-69
2022/05/18 14:38:22;;;;;;;;;;;26.70;99.90;;;;;;8360266;28;19979;-69
2022/05/18 14:42:25;;;;;;;;;;;26.70;99.90;;;;;;8358889;28;20337;-70
2022/05/18 14:46:28;;;;;;;;;;;26.60;99.90;;;;;;8376110;28;20350;-70
2022/05/18 14:50:35;;;;;;;;;;;26.60;99.90;;;;;;8357555;28;19964;-70
2022/05/18 14:54:36;;;;;;;;;;;26.50;99.90;;;;;;8356522;28;20285;-70
2022/05/18 14:58:40;;;;;;;;;;;26.50;99.90;;;;;;8383732;28;19928;-70
2022/05/18 15:02:50;;;;;;;;;;;26.50;99.90;;;;;;8358045;28;19928;-70
2022/05/18 15:06:53;;;;;;;;;;;26.50;99.90;;;;;;8354413;28;19982;-70
2022/05/18 15:10:59;;;;;;;;;;;26.50;99.90;;;;;;8354101;28;19928;-70
2022/05/18 15:15:16;;;;;;;;;;;26.50;99.90;;;;;;8353727;28;19924;-70
2022/05/18 15:19:26;;;;;;;;;;;26.50;99.90;;;;;;8385003;28;20233;-70
2022/05/18 15:23:32;;;;;;;;;;;26.50;99.90;;;;;;8355056;28;19967;-70
2022/05/18 15:27:36;;;;;;;;;;;26.60;99.90;;;;;;8350826;28;20288;-69
2022/05/18 15:31:44;;;;;;;;;;;26.60;99.90;;;;;;8350888;28;19925;-69
2022/05/18 15:36:16;;;;;;;;;;;26.70;99.90;;;;;;8352092;28;19927;-69
2022/05/18 15:40:18;;;;;;;;;;;26.70;99.90;;;;;;8353952;28;19928;-69
2022/05/18 15:44:20;;;;;;;;;;;26.90;99.90;;;;;;8351464;28;19928;-70
2022/05/18 15:48:21;;;;;;;;;;;27.10;99.90;;;;;;8383603;28;19943;-70
2022/05/18 15:52:23;;;;;;;7.15;3.55;;;27.50;99.90;;;;;;8379054;28;20376;-69
2022/05/18 15:56:26;;;;;;;7.40;3.17;;;27.90;99.90;;;;;;8366513;28;20357;-70
2022/05/18 16:00:28;;;;;;;6.60;3.55;;;28.40;99.90;;;;;;8366650;28;20049;-69
2022/05/18 16:04:30;;;;;;;6.80;3.50;;;28.70;99.90;;;;;;8352477;28;20080;-70
2022/05/18 16:08:33;;;;;;;5.60;3.30;;;28.80;99.90;;;;;;8386254;28;20048;-70
2022/05/18 16:12:37;;;;;;;5.55;3.40;;;28.80;99.90;;;;;;8350807;28;20045;-70
2022/05/18 16:22:02;;;;;;;5.80;3.10;;;28.60;99.90;;;;;;8351442;28;20121;-70
2022/05/18 16:26:35;;;;;;;5.35;3.15;;;28.50;99.90;;;;;;8352543;28;20036;-70
2022/05/18 16:30:37;;;;;;;5.60;3.45;;;28.40;99.90;;;;;;8354534;28;20092;-70
2022/05/18 16:34:59;;;;;;;6.68;3.78;;;28.30;99.90;;;;;;8351868;28;20140;-70
2022/05/18 16:39:01;;;;;;;5.68;3.60;;;28.20;99.90;;;;;;8349568;28;20053;-70
2022/05/18 16:43:03;;;;;;;6.00;3.17;;;28.10;99.90;;;;;;8337446;28;20108;-69
2022/05/18 16:47:05;;;;;;;5.93;3.30;;;28.00;99.90;;;;;;8348143;28;20037;-70
2022/05/18 16:51:07;;;;;;;4.75;2.80;;;28.00;99.90;;;;;;8351126;28;20453;-70
2022/05/18 16:55:12;;;;;;;4.88;3.03;;;28.00;99.90;;;;;;8357608;28;20067;-70
2022/05/18 16:59:16;;;;;;;5.50;3.20;;;28.00;99.90;;;;;;8360713;28;20428;-70
2022/05/18 17:03:18;;;;;;;5.75;2.95;;;28.00;99.90;;;;;;8374368;28;20037;-70
2022/05/18 17:07:19;;;;;;;5.13;2.80;;;28.10;99.90;;;;;;8358731;28;20049;-70
2022/05/18 17:11:30;;;;;;;7.20;3.60;;;28.20;99.90;;;;;;8360018;28;20076;-70
2022/05/18 17:15:32;;;;;;;5.78;3.30;;;28.30;99.90;;;;;;8358621;28;20037;-70
2022/05/18 17:19:34;;;;;;;4.90;2.90;;;28.30;99.90;;;;;;8358717;28;20178;-70
2022/05/18 17:23:36;;;;;;;6.20;3.50;;;28.20;99.90;;;;;;8371684;28;20047;-70
2022/05/18 17:27:38;;;;;;;4.97;2.60;;;28.20;99.90;;;;;;8357052;28;20076;-70
2022/05/18 17:31:45;;;;;;;5.68;3.10;;;28.10;99.90;;;;;;8353273;28;20083;-70
2022/05/18 17:35:47;;;;;;;5.30;2.95;;;28.10;99.90;;;;;;8357853;28;20494;-70
2022/05/18 17:39:49;;;;;;;4.93;2.50;;;27.80;99.90;;;;;;8372442;28;20520;-70
2022/05/18 17:43:51;;;;;;;6.07;2.78;;;27.60;99.90;;;;;;8356900;28;20079;-70
2022/05/18 17:47:54;;;;;;;5.50;2.70;;;27.40;99.90;;;;;;8361565;28;20124;-70
2022/05/18 17:51:59;;;;;;;5.30;2.60;;;27.20;99.90;;;;;;8387539;28;20051;-70
2022/05/18 17:56:01;;;;;;;5.40;2.53;;;27.10;99.90;;;;;;8393065;27;20055;-70
2022/05/18 18:00:05;;;;;;;6.57;2.65;;;27.00;99.90;;;;;;8359078;28;20538;-70
2022/05/18 18:04:07;;;;;;;4.85;2.05;;;26.90;99.90;;;;;;8352307;28;20076;-70
2022/05/18 18:08:09;;;;;;;4.43;1.85;;;26.80;99.90;;;;;;8356970;28;20073;-70
2022/05/18 18:12:13;;;;;;;5.90;2.40;;;26.80;99.90;;;;;;8350376;28;20095;-70
2022/05/18 18:16:17;;;;;;;5.43;2.03;;;26.70;99.90;;;;;;8357662;28;20048;-70
2022/05/18 18:20:35;;;;;;;4.50;2.33;;;26.70;99.90;;;;;;8356514;28;20060;-70
2022/05/18 18:24:38;;;;;;;4.47;2.47;;;26.60;99.90;;;;;;8356503;28;20072;-70
2022/05/18 18:28:39;;;;;;;4.30;1.98;;;26.50;99.90;;;;;;8355891;28;20121;-70
2022/05/18 18:32:42;;;;;;;4.20;1.83;;;26.30;99.90;;;;;;8353370;28;20052;-69
2022/05/18 18:36:44;;;;;;;5.63;1.92;;;26.30;99.90;;;;;;8355862;28;20044;-70
2022/05/18 18:40:47;;;;;;;5.35;2.30;;;26.20;99.90;;;;;;8371835;28;20055;-70
2022/05/18 18:44:49;;;;;;;5.05;2.35;;;26.10;99.90;;;;;;8353471;28;20084;-70
2022/05/18 18:48:50;;;;;;;5.50;2.30;;;25.90;99.90;;;;;;8353783;28;20072;-70
2022/05/18 18:57:45;;;;;;;5.43;2.50;;;25.60;99.90;;;;;;8315333;28;20434;-70
2022/05/18 19:01:47;;;;;;;5.65;2.45;;;25.50;99.90;;;;;;8354656;28;20072;-70
2022/05/18 19:05:49;;;;;;;4.60;2.45;;;25.30;99.90;;;;;;8353296;28;20417;-70
2022/05/18 19:09:56;;;;;;;4.63;2.47;;;25.20;99.90;;;;;;8350669;28;20084;-70
2022/05/18 19:13:58;;;;;;;7.87;2.93;;;25.10;99.90;;;;;;8351213;28;20467;-70
2022/05/18 19:18:00;;;;;;;;;;;24.90;99.90;;;;;;8348483;28;20070;-67
2022/05/18 19:22:02;;;;;;;;;;;24.80;99.90;;;;;;8353827;28;19939;-70
2022/05/18 19:26:06;;;;;;;5.65;2.45;;;24.70;99.90;;;;;;8351626;28;19972;-70
2022/05/18 19:30:09;;;;;;;;;;;24.50;99.90;;;;;;8352056;28;19936;-70
2022/05/18 19:34:10;;;;;;;;;;;24.40;99.90;;;;;;8352810;28;19921;-70
2022/05/18 19:38:12;;;;;;;;;;;24.30;99.90;;;;;;8353836;28;20288;-70
2022/05/18 19:42:14;;;;;;;;;;;24.20;99.90;;;;;;8353115;28;19921;-70
2022/05/18 19:46:20;;;;;;;5.30;2.28;;;24.10;99.90;;;;;;8351933;28;19935;-70
2022/05/18 19:50:24;;;;;;;;;;;24.00;99.90;;;;;;8348783;28;20430;-70
2022/05/18 19:54:25;;;;;;;;;;;23.80;99.90;;;;;;8371152;28;19924;-70
2022/05/18 19:58:28;;;;;;;;;;;23.70;99.90;;;;;;8354264;28;19952;-70
2022/05/18 20:02:30;;;;;;;;;;;23.60;99.90;;;;;;8355816;28;19952;-70
2022/05/18 20:06:32;;;;;;;;;;;23.50;99.90;;;;;;8366468;28;19929;-70
2022/05/18 20:15:37;;;;;;;;;;;23.30;99.90;;;;;;8354280;28;19915;-70
2022/05/18 20:19:41;;;;;;;;;;;23.20;99.90;;;;;;8349118;28;19920;-70
2022/05/18 20:23:44;;;;;;;;;;;23.10;99.90;;;;;;8346608;28;19924;-70
2022/05/18 20:28:06;;;;;;;;;;;23.00;99.90;;;;;;8352592;28;19936;-70
2022/05/18 20:32:10;;;;;;;;;;;22.80;99.90;;;;;;8359210;28;20023;-70
2022/05/18 20:36:19;;;;;;;;;;;22.70;99.90;;;;;;8358856;28;19934;-70
2022/05/18 20:40:21;;;;;;;;;;;22.60;99.90;;;;;;8357251;28;20986;-70
2022/05/18 20:44:28;;;;;;;;;;;22.50;99.90;;;;;;8354842;28;19940;-70
2022/05/18 20:48:30;;;;;;;;;;;22.50;99.90;;;;;;8357013;28;19944;-70
2022/05/18 20:52:32;;;;;;;;;;;22.40;99.90;;;;;;8353519;28;19931;-70
2022/05/18 20:56:36;;;;;;;;;;;22.40;99.90;;;;;;8371874;28;19939;-70
2022/05/18 21:00:37;;;;;;;;;;;22.20;99.90;;;;;;8354080;28;19924;-70
2022/05/18 21:04:39;;;;;;;;;;;22.20;99.90;;;;;;8375829;28;19924;-69
2022/05/18 21:08:41;;;;;;;;;;;22.10;99.90;;;;;;8391998;28;19921;-70
2022/05/18 21:12:47;;;;;;;;;;;22.00;99.90;;;;;;8394844;28;19937;-70
2022/05/18 21:16:53;;;;;;;5.38;2.70;;;22.00;99.90;;;;;;8371623;28;19925;-70
2022/05/18 21:20:55;;;;;;;5.00;3.00;;;21.90;99.90;;;;;;8378276;28;20591;-70
2022/05/18 21:24:57;;;;;;;5.90;2.72;;;21.90;99.90;;;;;;8375431;28;20064;-70
2022/05/18 21:28:58;;;;;;;6.47;3.10;;;21.80;99.90;;;;;;8361371;28;20833;-69
2022/05/18 21:33:00;;;;;;;5.78;2.88;;;21.80;99.90;;;;;;8375574;28;20056;-70
2022/05/18 21:37:02;;;;;;;;;;;21.70;99.90;;;;;;8384236;28;20059;-70
2022/05/18 21:41:04;;;;;;;;;;;21.70;99.90;;;;;;8394042;28;19935;-70
2022/05/18 21:45:08;;;;;;;;;;;21.60;99.90;;;;;;8377293;28;19943;-70
2022/05/18 21:49:11;;;;;;;;;;;21.60;99.90;;;;;;8375233;28;19921;-70
2022/05/18 21:53:13;;;;;;;;;;;21.50;99.90;;;;;;8383877;28;19959;-70
2022/05/18 21:57:15;;;;;;;;;;;21.50;99.90;;;;;;8405403;28;19939;-70
2022/05/18 22:01:16;;;;;;;;;;;21.50;99.90;;;;;;8380457;28;19920;-70
2022/05/18 22:05:18;;;;;;;;;;;21.40;99.90;;;;;;8402106;28;19932;-70
2022/05/18 22:09:20;;;;;;;;;;;21.40;99.90;;;;;;8367304;28;19921;-70
2022/05/18 22:13:21;;;;;;;;;;;21.40;99.90;;;;;;8374674;28;19931;-70
2022/05/18 22:17:23;;;;;;;;;;;21.30;99.90;;;;;;8370345;28;19954;-70
2022/05/18 22:21:24;;;;;;;;;;;21.30;99.90;;;;;;8376245;28;19927;-70
2022/05/18 22:25:27;;;;;;;;;;;21.30;99.90;;;;;;8376187;28;20315;-70
2022/05/18 22:29:29;;;;;;;;;;;21.30;99.90;;;;;;8388882;28;19928;-70
2022/05/18 22:33:31;;;;;;;;;;;21.30;99.90;;;;;;8381461;28;19974;-70
2022/05/18 22:37:32;;;;;;;;;;;21.30;99.90;;;;;;8380412;28;19931;-70
2022/05/18 22:41:35;;;;;;;;;;;21.30;99.90;;;;;;8380291;28;20280;-70
2022/05/18 22:45:37;;;;;;;;;;;21.30;99.90;;;;;;8377709;28;19921;-70
2022/05/18 22:49:39;;;;;;;;;;;21.20;99.90;;;;;;8371846;28;19930;-70
2022/05/18 22:53:41;;;;;;;;;;;21.30;99.90;;;;;;8372967;28;19936;-70
2022/05/18 22:57:43;;;;;;;;;;;21.20;99.90;;;;;;8380909;28;20415;-70
2022/05/18 23:06:49;;;;;;;;;;;21.20;99.90;;;;;;8384666;28;19923;-71
2022/05/18 23:10:51;;;;;;;;;;;21.20;99.90;;;;;;8371059;28;19927;-70
2022/05/18 23:14:52;;;;;;;;;;;21.20;99.90;;;;;;8376120;28;19924;-70
2022/05/18 23:18:54;;;;;;;;;;;21.20;99.90;;;;;;8371848;28;19928;-70
2022/05/18 23:27:19;;;;;;;;;;;21.20;99.90;;;;;;8390771;28;20072;-70
2022/05/18 23:31:23;;;;;;;;;;;21.10;99.90;;;;;;8390853;28;20366;-70
2022/05/18 23:35:24;;;;;;;;;;;21.10;99.90;;;;;;8373914;28;21028;-70
2022/05/18 23:39:26;;;;;;;;;;;21.10;99.90;;;;;;8394398;28;19931;-70
2022/05/18 23:43:28;;;;;;;;;;;21.00;99.90;;;;;;8381925;28;19927;-70
2022/05/18 23:47:30;;;;;;;;;;;21.00;99.90;;;;;;8370900;28;20252;-70
2022/05/18 23:51:32;;;;;;;;;;;21.00;99.90;;;;;;8381700;28;19939;-70
2022/05/18 23:55:34;;;;;;;;;;;21.00;99.90;;;;;;8375674;28;19957;-70